sensor_id;sensor_type;location;lat;lon;timestamp;temperature;humidity
59007;DHT22;44792;52.760;6.726;2022-07-21T00:01:46;21.40;99.90
59007;DHT22;44792;52.760;6.726;2022-07-21T00:04:12;21.40;99.90
59007;DHT22;44792;52.760;6.726;2022-07-21T00:06:38;21.20;99.90
59007;DHT22;44792;52.760;6.726;2022-07-21T00:09:04;21.30;99.90
59007;DHT22;44792;52.760;6.726;2022-07-21T00:11:29;21.30;99.90
59007;DHT22;44792;52.760;6.726;2022-07-21T00:13:55;21.40;99.90
59007;DHT22;44792;52.760;6.726;2022-07-21T00:16:21;21.40;99.90
59007;DHT22;44792;52.760;6.726;2022-07-21T00:18:46;21.50;99.90
59007;DHT22;44792;52.760;6.726;2022-07-21T00:21:12;21.40;99.90
59007;DHT22;44792;52.760;6.726;2022-07-21T00:23:38;21.40;99.90
59007;DHT22;44792;52.760;6.726;2022-07-21T00:26:04;21.40;99.90
59007;DHT22;44792;52.760;6.726;2022-07-21T00:28:30;21.40;99.90
59007;DHT22;44792;52.760;6.726;2022-07-21T00:30:56;21.30;99.90
59007;DHT22;44792;52.760;6.726;2022-07-21T00:33:21;21.30;99.90
59007;DHT22;44792;52.760;6.726;2022-07-21T00:35:47;21.30;99.90
59007;DHT22;44792;52.760;6.726;2022-07-21T00:38:14;21.20;99.90
59007;DHT22;44792;52.760;6.726;2022-07-21T00:40:39;21.20;99.90
59007;DHT22;44792;52.760;6.726;2022-07-21T00:43:05;21.10;99.90
59007;DHT22;44792;52.760;6.726;2022-07-21T00:45:31;21.20;99.90
59007;DHT22;44792;52.760;6.726;2022-07-21T00:47:57;21.00;99.90
59007;DHT22;44792;52.760;6.726;2022-07-21T00:50:23;21.00;99.90
59007;DHT22;44792;52.760;6.726;2022-07-21T00:52:49;20.90;99.90
59007;DHT22;44792;52.760;6.726;2022-07-21T00:55:17;20.90;99.90
59007;DHT22;44792;52.760;6.726;2022-07-21T00:57:44;20.90;99.90
59007;DHT22;44792;52.760;6.726;2022-07-21T01:00:15;20.90;99.90
59007;DHT22;44792;52.760;6.726;2022-07-21T01:02:41;20.80;99.90
59007;DHT22;44792;52.760;6.726;2022-07-21T01:05:12;20.90;99.90
59007;DHT22;44792;52.760;6.726;2022-07-21T01:07:41;20.90;99.90
59007;DHT22;44792;52.760;6.726;2022-07-21T01:10:08;20.90;99.90
59007;DHT22;44792;52.760;6.726;2022-07-21T01:12:34;20.70;99.90
59007;DHT22;44792;52.760;6.726;2022-07-21T01:15:00;20.80;99.90
59007;DHT22;44792;52.760;6.726;2022-07-21T01:17:26;20.80;99.90
59007;DHT22;44792;52.760;6.726;2022-07-21T01:19:52;20.80;99.90
59007;DHT22;44792;52.760;6.726;2022-07-21T01:22:18;20.80;99.90
59007;DHT22;44792;52.760;6.726;2022-07-21T01:24:43;20.80;99.90
59007;DHT22;44792;52.760;6.726;2022-07-21T01:27:09;20.70;99.90
59007;DHT22;44792;52.760;6.726;2022-07-21T01:29:35;20.70;99.90
59007;DHT22;44792;52.760;6.726;2022-07-21T01:32:00;20.70;99.90
59007;DHT22;44792;52.760;6.726;2022-07-21T01:34:28;20.70;99.90
59007;DHT22;44792;52.760;6.726;2022-07-21T01:36:53;20.70;99.90
59007;DHT22;44792;52.760;6.726;2022-07-21T01:39:19;20.70;99.90
59007;DHT22;44792;52.760;6.726;2022-07-21T01:42:03;20.70;99.90
59007;DHT22;44792;52.760;6.726;2022-07-21T01:44:29;20.70;99.90
59007;DHT22;44792;52.760;6.726;2022-07-21T01:46:55;20.70;99.90
59007;DHT22;44792;52.760;6.726;2022-07-21T01:49:21;20.70;99.90
59007;DHT22;44792;52.760;6.726;2022-07-21T01:51:48;20.70;99.90
59007;DHT22;44792;52.760;6.726;2022-07-21T01:54:14;20.60;99.90
59007;DHT22;44792;52.760;6.726;2022-07-21T01:56:40;20.50;99.90
59007;DHT22;44792;52.760;6.726;2022-07-21T01:59:06;20.60;99.90
59007;DHT22;44792;52.760;6.726;2022-07-21T02:01:32;20.60;99.90
59007;DHT22;44792;52.760;6.726;2022-07-21T02:04:00;20.60;99.90
59007;DHT22;44792;52.760;6.726;2022-07-21T02:06:26;20.50;99.90
59007;DHT22;44792;52.760;6.726;2022-07-21T02:08:52;20.60;99.90
59007;DHT22;44792;52.760;6.726;2022-07-21T02:11:18;20.60;99.90
59007;DHT22;44792;52.760;6.726;2022-07-21T02:13:46;20.70;99.90
59007;DHT22;44792;52.760;6.726;2022-07-21T02:16:12;20.60;99.90
59007;DHT22;44792;52.760;6.726;2022-07-21T02:18:37;20.50;99.90
59007;DHT22;44792;52.760;6.726;2022-07-21T02:21:04;20.50;99.90
59007;DHT22;44792;52.760;6.726;2022-07-21T02:23:30;20.50;99.90
59007;DHT22;44792;52.760;6.726;2022-07-21T02:25:55;20.50;99.90
59007;DHT22;44792;52.760;6.726;2022-07-21T02:28:22;20.50;99.90
59007;DHT22;44792;52.760;6.726;2022-07-21T02:30:48;20.50;99.90
59007;DHT22;44792;52.760;6.726;2022-07-21T02:33:14;20.50;99.90
59007;DHT22;44792;52.760;6.726;2022-07-21T02:35:40;20.50;99.90
59007;DHT22;44792;52.760;6.726;2022-07-21T02:38:06;20.50;99.90
59007;DHT22;44792;52.760;6.726;2022-07-21T02:40:32;20.50;99.90
59007;DHT22;44792;52.760;6.726;2022-07-21T02:42:58;20.50;99.90
59007;DHT22;44792;52.760;6.726;2022-07-21T02:45:24;20.50;99.90
59007;DHT22;44792;52.760;6.726;2022-07-21T02:47:54;20.50;99.90
59007;DHT22;44792;52.760;6.726;2022-07-21T02:50:21;20.40;99.90
59007;DHT22;44792;52.760;6.726;2022-07-21T02:52:48;20.40;99.90
59007;DHT22;44792;52.760;6.726;2022-07-21T02:55:14;20.30;99.90
59007;DHT22;44792;52.760;6.726;2022-07-21T02:57:40;20.30;99.90
59007;DHT22;44792;52.760;6.726;2022-07-21T03:00:08;20.40;99.90
59007;DHT22;44792;52.760;6.726;2022-07-21T03:02:34;20.40;99.90
59007;DHT22;44792;52.760;6.726;2022-07-21T03:04:59;20.30;99.90
59007;DHT22;44792;52.760;6.726;2022-07-21T03:07:25;20.30;99.90
59007;DHT22;44792;52.760;6.726;2022-07-21T03:09:51;20.30;99.90
59007;DHT22;44792;52.760;6.726;2022-07-21T03:12:16;20.20;99.90
59007;DHT22;44792;52.760;6.726;2022-07-21T03:14:42;20.30;99.90
59007;DHT22;44792;52.760;6.726;2022-07-21T03:17:07;20.20;99.90
59007;DHT22;44792;52.760;6.726;2022-07-21T03:19:33;20.20;99.90
59007;DHT22;44792;52.760;6.726;2022-07-21T03:21:59;20.20;99.90
59007;DHT22;44792;52.760;6.726;2022-07-21T03:24:24;20.20;99.90
59007;DHT22;44792;52.760;6.726;2022-07-21T03:26:50;20.20;99.90
59007;DHT22;44792;52.760;6.726;2022-07-21T03:29:16;20.20;99.90
59007;DHT22;44792;52.760;6.726;2022-07-21T03:31:41;20.20;99.90
59007;DHT22;44792;52.760;6.726;2022-07-21T03:34:07;20.20;99.90
59007;DHT22;44792;52.760;6.726;2022-07-21T03:36:33;20.10;99.90
59007;DHT22;44792;52.760;6.726;2022-07-21T03:38:58;20.10;99.90
59007;DHT22;44792;52.760;6.726;2022-07-21T03:41:24;20.20;99.90
59007;DHT22;44792;52.760;6.726;2022-07-21T03:43:49;20.20;99.90
59007;DHT22;44792;52.760;6.726;2022-07-21T03:46:15;20.20;99.90
59007;DHT22;44792;52.760;6.726;2022-07-21T03:48:40;20.20;99.90
59007;DHT22;44792;52.760;6.726;2022-07-21T03:51:06;20.20;99.90
59007;DHT22;44792;52.760;6.726;2022-07-21T03:53:32;20.20;99.90
59007;DHT22;44792;52.760;6.726;2022-07-21T03:55:57;20.20;99.90
59007;DHT22;44792;52.760;6.726;2022-07-21T03:58:23;20.20;99.90
59007;DHT22;44792;52.760;6.726;2022-07-21T04:00:48;20.20;99.90
59007;DHT22;44792;52.760;6.726;2022-07-21T04:03:14;20.20;99.90
59007;DHT22;44792;52.760;6.726;2022-07-21T04:05:41;20.20;99.90
59007;DHT22;44792;52.760;6.726;2022-07-21T04:08:08;20.20;99.90
59007;DHT22;44792;52.760;6.726;2022-07-21T04:10:37;20.20;99.90
59007;DHT22;44792;52.760;6.726;2022-07-21T04:13:05;20.20;99.90
59007;DHT22;44792;52.760;6.726;2022-07-21T04:15:31;20.20;99.90
59007;DHT22;44792;52.760;6.726;2022-07-21T04:17:57;20.30;99.90
59007;DHT22;44792;52.760;6.726;2022-07-21T04:20:23;20.20;99.90
59007;DHT22;44792;52.760;6.726;2022-07-21T04:22:49;20.20;99.90
59007;DHT22;44792;52.760;6.726;2022-07-21T04:25:16;20.20;99.90
59007;DHT22;44792;52.760;6.726;2022-07-21T04:27:42;20.20;99.90
59007;DHT22;44792;52.760;6.726;2022-07-21T04:30:10;20.20;99.90
59007;DHT22;44792;52.760;6.726;2022-07-21T04:32:36;20.20;99.90
59007;DHT22;44792;52.760;6.726;2022-07-21T04:35:04;20.10;99.90
59007;DHT22;44792;52.760;6.726;2022-07-21T04:37:30;20.20;99.90
59007;DHT22;44792;52.760;6.726;2022-07-21T04:39:55;20.20;99.90
59007;DHT22;44792;52.760;6.726;2022-07-21T04:42:21;20.20;99.90
59007;DHT22;44792;52.760;6.726;2022-07-21T04:44:46;20.20;99.90
59007;DHT22;44792;52.760;6.726;2022-07-21T04:47:12;20.20;99.90
59007;DHT22;44792;52.760;6.726;2022-07-21T04:49:38;20.20;99.90
59007;DHT22;44792;52.760;6.726;2022-07-21T04:52:04;20.20;99.90
59007;DHT22;44792;52.760;6.726;2022-07-21T04:54:30;20.20;99.90
59007;DHT22;44792;52.760;6.726;2022-07-21T04:56:55;20.10;99.90
59007;DHT22;44792;52.760;6.726;2022-07-21T04:59:21;20.20;99.90
59007;DHT22;44792;52.760;6.726;2022-07-21T05:01:47;20.10;99.90
59007;DHT22;44792;52.760;6.726;2022-07-21T05:04:12;20.10;99.90
59007;DHT22;44792;52.760;6.726;2022-07-21T05:06:38;20.10;99.90
59007;DHT22;44792;52.760;6.726;2022-07-21T05:09:03;20.10;99.90
59007;DHT22;44792;52.760;6.726;2022-07-21T05:11:29;20.10;99.90
59007;DHT22;44792;52.760;6.726;2022-07-21T05:13:55;20.10;99.90
59007;DHT22;44792;52.760;6.726;2022-07-21T05:16:21;20.20;99.90
59007;DHT22;44792;52.760;6.726;2022-07-21T05:18:46;20.20;99.90
59007;DHT22;44792;52.760;6.726;2022-07-21T05:21:12;20.20;99.90
59007;DHT22;44792;52.760;6.726;2022-07-21T05:23:38;20.20;99.90
59007;DHT22;44792;52.760;6.726;2022-07-21T05:26:03;20.30;99.90
59007;DHT22;44792;52.760;6.726;2022-07-21T05:28:29;20.30;99.90
59007;DHT22;44792;52.760;6.726;2022-07-21T05:30:55;20.40;99.90
59007;DHT22;44792;52.760;6.726;2022-07-21T05:33:20;20.40;99.90
59007;DHT22;44792;52.760;6.726;2022-07-21T05:35:46;20.40;99.90
59007;DHT22;44792;52.760;6.726;2022-07-21T05:38:11;20.40;99.90
59007;DHT22;44792;52.760;6.726;2022-07-21T05:40:37;20.60;99.90
59007;DHT22;44792;52.760;6.726;2022-07-21T05:43:02;20.70;99.90
59007;DHT22;44792;52.760;6.726;2022-07-21T05:45:28;20.80;99.90
59007;DHT22;44792;52.760;6.726;2022-07-21T05:47:54;20.80;99.90
59007;DHT22;44792;52.760;6.726;2022-07-21T05:50:19;20.90;99.90
59007;DHT22;44792;52.760;6.726;2022-07-21T05:52:45;21.00;99.90
59007;DHT22;44792;52.760;6.726;2022-07-21T05:55:11;21.00;99.90
59007;DHT22;44792;52.760;6.726;2022-07-21T05:57:37;20.90;99.90
59007;DHT22;44792;52.760;6.726;2022-07-21T06:00:04;20.80;99.90
59007;DHT22;44792;52.760;6.726;2022-07-21T06:02:30;20.80;99.90
59007;DHT22;44792;52.760;6.726;2022-07-21T06:04:57;20.70;99.90
59007;DHT22;44792;52.760;6.726;2022-07-21T06:07:22;20.60;99.90
59007;DHT22;44792;52.760;6.726;2022-07-21T06:09:48;20.60;99.90
59007;DHT22;44792;52.760;6.726;2022-07-21T06:12:14;20.50;99.90
59007;DHT22;44792;52.760;6.726;2022-07-21T06:14:40;20.50;99.90
59007;DHT22;44792;52.760;6.726;2022-07-21T06:17:05;20.40;99.90
59007;DHT22;44792;52.760;6.726;2022-07-21T06:19:31;20.40;99.90
59007;DHT22;44792;52.760;6.726;2022-07-21T06:21:57;20.40;99.90
59007;DHT22;44792;52.760;6.726;2022-07-21T06:24:22;20.30;99.90
59007;DHT22;44792;52.760;6.726;2022-07-21T06:26:48;20.30;99.90
59007;DHT22;44792;52.760;6.726;2022-07-21T06:29:14;20.40;99.90
59007;DHT22;44792;52.760;6.726;2022-07-21T06:31:40;20.40;99.90
59007;DHT22;44792;52.760;6.726;2022-07-21T06:34:05;20.30;99.90
59007;DHT22;44792;52.760;6.726;2022-07-21T06:36:31;20.30;99.90
59007;DHT22;44792;52.760;6.726;2022-07-21T06:38:57;20.30;99.90
59007;DHT22;44792;52.760;6.726;2022-07-21T06:41:23;20.30;99.90
59007;DHT22;44792;52.760;6.726;2022-07-21T06:43:48;20.30;99.90
59007;DHT22;44792;52.760;6.726;2022-07-21T06:46:14;20.30;99.90
59007;DHT22;44792;52.760;6.726;2022-07-21T06:48:39;20.40;99.90
59007;DHT22;44792;52.760;6.726;2022-07-21T06:51:05;20.40;99.90
59007;DHT22;44792;52.760;6.726;2022-07-21T06:53:31;20.40;99.90
59007;DHT22;44792;52.760;6.726;2022-07-21T06:55:56;20.40;99.90
59007;DHT22;44792;52.760;6.726;2022-07-21T06:58:23;20.50;99.90
59007;DHT22;44792;52.760;6.726;2022-07-21T07:00:50;20.50;99.90
59007;DHT22;44792;52.760;6.726;2022-07-21T07:03:17;20.50;99.90
59007;DHT22;44792;52.760;6.726;2022-07-21T07:05:44;20.70;99.90
59007;DHT22;44792;52.760;6.726;2022-07-21T07:08:10;20.70;99.90
59007;DHT22;44792;52.760;6.726;2022-07-21T07:10:36;20.70;99.90
59007;DHT22;44792;52.760;6.726;2022-07-21T07:13:02;20.80;99.90
59007;DHT22;44792;52.760;6.726;2022-07-21T07:15:28;20.80;99.90
59007;DHT22;44792;52.760;6.726;2022-07-21T07:17:54;20.90;99.90
59007;DHT22;44792;52.760;6.726;2022-07-21T07:20:21;21.00;99.90
59007;DHT22;44792;52.760;6.726;2022-07-21T07:22:46;21.10;99.90
59007;DHT22;44792;52.760;6.726;2022-07-21T07:25:12;21.10;99.90
59007;DHT22;44792;52.760;6.726;2022-07-21T07:27:42;21.00;99.90
59007;DHT22;44792;52.760;6.726;2022-07-21T07:30:08;21.10;99.90
59007;DHT22;44792;52.760;6.726;2022-07-21T07:32:34;21.10;99.90
59007;DHT22;44792;52.760;6.726;2022-07-21T07:35:00;21.10;99.90
59007;DHT22;44792;52.760;6.726;2022-07-21T07:37:25;21.10;99.90
59007;DHT22;44792;52.760;6.726;2022-07-21T07:39:51;21.20;99.90
59007;DHT22;44792;52.760;6.726;2022-07-21T07:42:16;21.20;99.90
59007;DHT22;44792;52.760;6.726;2022-07-21T07:44:42;21.20;99.90
59007;DHT22;44792;52.760;6.726;2022-07-21T07:47:07;21.30;99.90
59007;DHT22;44792;52.760;6.726;2022-07-21T07:49:33;21.40;99.90
59007;DHT22;44792;52.760;6.726;2022-07-21T07:51:58;21.40;99.90
59007;DHT22;44792;52.760;6.726;2022-07-21T07:54:24;21.40;99.90
59007;DHT22;44792;52.760;6.726;2022-07-21T07:56:50;21.50;99.90
59007;DHT22;44792;52.760;6.726;2022-07-21T07:59:16;21.50;99.90
59007;DHT22;44792;52.760;6.726;2022-07-21T08:01:42;21.70;99.90
59007;DHT22;44792;52.760;6.726;2022-07-21T08:04:07;21.90;99.90
59007;DHT22;44792;52.760;6.726;2022-07-21T08:06:33;22.10;99.90
59007;DHT22;44792;52.760;6.726;2022-07-21T08:08:59;22.20;99.90
59007;DHT22;44792;52.760;6.726;2022-07-21T08:11:25;22.30;99.90
59007;DHT22;44792;52.760;6.726;2022-07-21T08:13:50;22.30;99.90
59007;DHT22;44792;52.760;6.726;2022-07-21T08:16:16;22.30;99.90
59007;DHT22;44792;52.760;6.726;2022-07-21T08:18:43;22.20;99.90
59007;DHT22;44792;52.760;6.726;2022-07-21T08:21:09;22.20;99.90
59007;DHT22;44792;52.760;6.726;2022-07-21T08:23:35;22.30;99.90
59007;DHT22;44792;52.760;6.726;2022-07-21T08:26:00;22.20;99.90
59007;DHT22;44792;52.760;6.726;2022-07-21T08:28:26;22.30;99.90
59007;DHT22;44792;52.760;6.726;2022-07-21T08:30:52;22.40;99.90
59007;DHT22;44792;52.760;6.726;2022-07-21T08:33:18;22.40;99.90
59007;DHT22;44792;52.760;6.726;2022-07-21T08:35:43;22.50;99.90
59007;DHT22;44792;52.760;6.726;2022-07-21T08:38:10;22.70;99.90
59007;DHT22;44792;52.760;6.726;2022-07-21T08:40:40;22.70;99.90
59007;DHT22;44792;52.760;6.726;2022-07-21T08:43:07;22.80;99.90
59007;DHT22;44792;52.760;6.726;2022-07-21T08:45:35;22.80;99.90
59007;DHT22;44792;52.760;6.726;2022-07-21T08:48:01;22.90;99.90
59007;DHT22;44792;52.760;6.726;2022-07-21T08:50:30;22.90;99.90
59007;DHT22;44792;52.760;6.726;2022-07-21T08:52:55;22.90;99.90
59007;DHT22;44792;52.760;6.726;2022-07-21T08:55:21;23.00;99.90
59007;DHT22;44792;52.760;6.726;2022-07-21T08:57:47;22.90;99.90
59007;DHT22;44792;52.760;6.726;2022-07-21T09:00:13;23.00;99.90
59007;DHT22;44792;52.760;6.726;2022-07-21T09:02:39;23.00;99.90
59007;DHT22;44792;52.760;6.726;2022-07-21T09:05:08;22.90;99.90
59007;DHT22;44792;52.760;6.726;2022-07-21T09:07:50;22.80;99.90
59007;DHT22;44792;52.760;6.726;2022-07-21T09:10:22;22.70;99.90
59007;DHT22;44792;52.760;6.726;2022-07-21T09:13:01;22.70;99.90
59007;DHT22;44792;52.760;6.726;2022-07-21T09:15:28;22.70;99.90
59007;DHT22;44792;52.760;6.726;2022-07-21T09:18:09;22.50;99.90
59007;DHT22;44792;52.760;6.726;2022-07-21T09:20:35;22.40;99.90
59007;DHT22;44792;52.760;6.726;2022-07-21T09:23:10;22.40;99.90
59007;DHT22;44792;52.760;6.726;2022-07-21T09:25:45;22.20;99.90
59007;DHT22;44792;52.760;6.726;2022-07-21T09:28:16;22.30;99.90
59007;DHT22;44792;52.760;6.726;2022-07-21T09:30:53;22.30;99.90
59007;DHT22;44792;52.760;6.726;2022-07-21T09:33:21;22.20;99.90
59007;DHT22;44792;52.760;6.726;2022-07-21T09:35:59;22.50;99.90
59007;DHT22;44792;52.760;6.726;2022-07-21T09:38:26;22.90;99.90
59007;DHT22;44792;52.760;6.726;2022-07-21T09:40:52;23.00;99.90
59007;DHT22;44792;52.760;6.726;2022-07-21T09:43:32;22.80;99.90
59007;DHT22;44792;52.760;6.726;2022-07-21T09:46:03;22.60;99.90
59007;DHT22;44792;52.760;6.726;2022-07-21T09:48:36;22.60;99.90
59007;DHT22;44792;52.760;6.726;2022-07-21T09:53:56;22.30;99.90
59007;DHT22;44792;52.760;6.726;2022-07-21T09:56:22;22.30;99.90
59007;DHT22;44792;52.760;6.726;2022-07-21T09:58:50;22.30;99.90
59007;DHT22;44792;52.760;6.726;2022-07-21T10:01:16;22.30;99.90
59007;DHT22;44792;52.760;6.726;2022-07-21T10:03:44;22.20;99.90
59007;DHT22;44792;52.760;6.726;2022-07-21T10:06:10;22.20;99.90
59007;DHT22;44792;52.760;6.726;2022-07-21T10:08:37;22.20;99.90
59007;DHT22;44792;52.760;6.726;2022-07-21T10:11:02;22.20;99.90
59007;DHT22;44792;52.760;6.726;2022-07-21T10:13:28;22.20;99.90
59007;DHT22;44792;52.760;6.726;2022-07-21T10:15:54;22.20;99.90
59007;DHT22;44792;52.760;6.726;2022-07-21T10:18:22;22.00;99.90
59007;DHT22;44792;52.760;6.726;2022-07-21T10:21:02;22.00;99.90
59007;DHT22;44792;52.760;6.726;2022-07-21T10:23:39;21.80;99.90
59007;DHT22;44792;52.760;6.726;2022-07-21T10:26:07;21.80;99.90
59007;DHT22;44792;52.760;6.726;2022-07-21T10:28:33;21.80;99.90
59007;DHT22;44792;52.760;6.726;2022-07-21T10:31:21;21.80;99.90
59007;DHT22;44792;52.760;6.726;2022-07-21T10:47:04;22.20;99.90
59007;DHT22;44792;52.760;6.726;2022-07-21T10:55:22;22.30;99.90
59007;DHT22;44792;52.760;6.726;2022-07-21T10:58:28;22.40;99.90
59007;DHT22;44792;52.760;6.726;2022-07-21T11:06:16;22.80;99.90
59007;DHT22;44792;52.760;6.726;2022-07-21T11:08:43;23.00;99.90
59007;DHT22;44792;52.760;6.726;2022-07-21T11:13:58;23.10;99.90
59007;DHT22;44792;52.760;6.726;2022-07-21T11:16:58;23.30;99.90
59007;DHT22;44792;52.760;6.726;2022-07-21T11:22:12;23.60;99.90
59007;DHT22;44792;52.760;6.726;2022-07-21T11:24:39;23.70;99.90
59007;DHT22;44792;52.760;6.726;2022-07-21T11:27:09;23.70;99.90
59007;DHT22;44792;52.760;6.726;2022-07-21T11:29:37;23.70;99.90
59007;DHT22;44792;52.760;6.726;2022-07-21T11:32:03;23.80;99.90
59007;DHT22;44792;52.760;6.726;2022-07-21T11:34:47;23.70;99.90
59007;DHT22;44792;52.760;6.726;2022-07-21T11:37:19;23.70;99.90
59007;DHT22;44792;52.760;6.726;2022-07-21T11:39:51;23.60;99.90
59007;DHT22;44792;52.760;6.726;2022-07-21T11:42:17;23.60;99.90
59007;DHT22;44792;52.760;6.726;2022-07-21T11:44:43;23.40;99.90
59007;DHT22;44792;52.760;6.726;2022-07-21T11:47:14;23.40;99.90
59007;DHT22;44792;52.760;6.726;2022-07-21T11:49:42;23.30;99.90
59007;DHT22;44792;52.760;6.726;2022-07-21T11:52:10;23.20;99.90
59007;DHT22;44792;52.760;6.726;2022-07-21T11:54:42;23.00;99.90
59007;DHT22;44792;52.760;6.726;2022-07-21T11:57:08;23.00;99.90
59007;DHT22;44792;52.760;6.726;2022-07-21T11:59:35;23.00;99.90
59007;DHT22;44792;52.760;6.726;2022-07-21T12:02:08;23.00;99.90
59007;DHT22;44792;52.760;6.726;2022-07-21T12:10:29;22.90;99.90
59007;DHT22;44792;52.760;6.726;2022-07-21T12:13:04;22.90;99.90
59007;DHT22;44792;52.760;6.726;2022-07-21T12:15:31;23.00;99.90
59007;DHT22;44792;52.760;6.726;2022-07-21T12:18:20;23.00;99.90
59007;DHT22;44792;52.760;6.726;2022-07-21T12:20:46;22.90;99.90
59007;DHT22;44792;52.760;6.726;2022-07-21T12:23:27;22.80;99.90
59007;DHT22;44792;52.760;6.726;2022-07-21T12:25:54;22.80;99.90
59007;DHT22;44792;52.760;6.726;2022-07-21T12:28:20;22.70;99.90
59007;DHT22;44792;52.760;6.726;2022-07-21T12:30:48;22.90;99.90
59007;DHT22;44792;52.760;6.726;2022-07-21T12:33:17;22.80;99.90
59007;DHT22;44792;52.760;6.726;2022-07-21T12:35:55;22.90;99.90
59007;DHT22;44792;52.760;6.726;2022-07-21T12:38:22;22.80;99.90
59007;DHT22;44792;52.760;6.726;2022-07-21T12:40:55;22.70;99.90
59007;DHT22;44792;52.760;6.726;2022-07-21T12:43:21;22.70;99.90
59007;DHT22;44792;52.760;6.726;2022-07-21T12:46:09;22.60;99.90
59007;DHT22;44792;52.760;6.726;2022-07-21T12:48:36;22.50;99.90
59007;DHT22;44792;52.760;6.726;2022-07-21T12:53:37;22.30;99.90
59007;DHT22;44792;52.760;6.726;2022-07-21T12:56:04;22.30;99.90
59007;DHT22;44792;52.760;6.726;2022-07-21T12:58:29;22.30;99.90
59007;DHT22;44792;52.760;6.726;2022-07-21T13:00:55;22.30;99.90
59007;DHT22;44792;52.760;6.726;2022-07-21T13:03:21;22.30;99.90
59007;DHT22;44792;52.760;6.726;2022-07-21T13:05:47;22.20;99.90
59007;DHT22;44792;52.760;6.726;2022-07-21T13:08:12;22.30;99.90
59007;DHT22;44792;52.760;6.726;2022-07-21T13:10:38;22.20;99.90
59007;DHT22;44792;52.760;6.726;2022-07-21T13:13:04;22.20;99.90
59007;DHT22;44792;52.760;6.726;2022-07-21T13:15:29;22.10;99.90
59007;DHT22;44792;52.760;6.726;2022-07-21T13:17:55;22.10;99.90
59007;DHT22;44792;52.760;6.726;2022-07-21T13:20:20;22.00;99.90
59007;DHT22;44792;52.760;6.726;2022-07-21T13:22:46;21.80;99.90
59007;DHT22;44792;52.760;6.726;2022-07-21T13:25:13;21.80;99.90
59007;DHT22;44792;52.760;6.726;2022-07-21T13:27:39;21.70;99.90
59007;DHT22;44792;52.760;6.726;2022-07-21T13:30:06;21.70;99.90
59007;DHT22;44792;52.760;6.726;2022-07-21T13:32:33;21.80;99.90
59007;DHT22;44792;52.760;6.726;2022-07-21T13:34:59;21.80;99.90
59007;DHT22;44792;52.760;6.726;2022-07-21T13:37:25;21.80;99.90
59007;DHT22;44792;52.760;6.726;2022-07-21T13:39:50;21.90;99.90
59007;DHT22;44792;52.760;6.726;2022-07-21T13:42:16;22.00;99.90
59007;DHT22;44792;52.760;6.726;2022-07-21T13:44:41;22.10;99.90
59007;DHT22;44792;52.760;6.726;2022-07-21T13:47:07;22.10;99.90
59007;DHT22;44792;52.760;6.726;2022-07-21T13:49:33;22.10;99.90
59007;DHT22;44792;52.760;6.726;2022-07-21T13:51:59;22.00;99.90
59007;DHT22;44792;52.760;6.726;2022-07-21T13:54:24;22.20;99.90
59007;DHT22;44792;52.760;6.726;2022-07-21T13:56:50;22.20;99.90
59007;DHT22;44792;52.760;6.726;2022-07-21T13:59:16;22.20;99.90
59007;DHT22;44792;52.760;6.726;2022-07-21T14:01:41;22.20;99.90
59007;DHT22;44792;52.760;6.726;2022-07-21T14:04:08;22.10;99.90
59007;DHT22;44792;52.760;6.726;2022-07-21T14:06:33;22.10;99.90
59007;DHT22;44792;52.760;6.726;2022-07-21T14:08:59;22.20;99.90
59007;DHT22;44792;52.760;6.726;2022-07-21T14:11:24;22.20;99.90
59007;DHT22;44792;52.760;6.726;2022-07-21T14:13:55;22.30;99.90
59007;DHT22;44792;52.760;6.726;2022-07-21T14:16:20;22.30;99.90
59007;DHT22;44792;52.760;6.726;2022-07-21T14:18:47;22.40;99.90
59007;DHT22;44792;52.760;6.726;2022-07-21T14:21:13;22.50;99.90
59007;DHT22;44792;52.760;6.726;2022-07-21T14:23:39;22.50;99.90
59007;DHT22;44792;52.760;6.726;2022-07-21T14:26:05;22.60;99.90
59007;DHT22;44792;52.760;6.726;2022-07-21T14:28:30;22.50;99.90
59007;DHT22;44792;52.760;6.726;2022-07-21T14:30:56;22.50;99.90
59007;DHT22;44792;52.760;6.726;2022-07-21T14:33:22;22.50;99.90
59007;DHT22;44792;52.760;6.726;2022-07-21T14:35:48;22.70;99.90
59007;DHT22;44792;52.760;6.726;2022-07-21T14:38:13;22.70;99.90
59007;DHT22;44792;52.760;6.726;2022-07-21T14:40:39;22.80;99.90
59007;DHT22;44792;52.760;6.726;2022-07-21T14:43:05;22.80;99.90
59007;DHT22;44792;52.760;6.726;2022-07-21T14:45:31;22.80;99.90
59007;DHT22;44792;52.760;6.726;2022-07-21T14:47:57;22.80;99.90
59007;DHT22;44792;52.760;6.726;2022-07-21T14:50:25;22.90;99.90
59007;DHT22;44792;52.760;6.726;2022-07-21T14:52:51;22.80;99.90
59007;DHT22;44792;52.760;6.726;2022-07-21T14:55:16;22.80;99.90
59007;DHT22;44792;52.760;6.726;2022-07-21T14:57:42;22.90;99.90
59007;DHT22;44792;52.760;6.726;2022-07-21T15:00:09;22.90;99.90
59007;DHT22;44792;52.760;6.726;2022-07-21T15:02:35;22.80;99.90
59007;DHT22;44792;52.760;6.726;2022-07-21T15:05:01;22.80;99.90
59007;DHT22;44792;52.760;6.726;2022-07-21T15:07:26;22.90;99.90
59007;DHT22;44792;52.760;6.726;2022-07-21T15:09:52;22.90;99.90
59007;DHT22;44792;52.760;6.726;2022-07-21T15:12:18;22.80;99.90
59007;DHT22;44792;52.760;6.726;2022-07-21T15:14:43;22.90;99.90
59007;DHT22;44792;52.760;6.726;2022-07-21T15:17:09;22.90;99.90
59007;DHT22;44792;52.760;6.726;2022-07-21T15:19:35;22.90;99.90
59007;DHT22;44792;52.760;6.726;2022-07-21T15:22:00;22.90;99.90
59007;DHT22;44792;52.760;6.726;2022-07-21T15:24:26;23.00;99.90
59007;DHT22;44792;52.760;6.726;2022-07-21T15:26:51;23.00;99.90
59007;DHT22;44792;52.760;6.726;2022-07-21T15:29:17;23.00;99.90
59007;DHT22;44792;52.760;6.726;2022-07-21T15:31:42;22.90;99.90
59007;DHT22;44792;52.760;6.726;2022-07-21T15:34:09;22.90;99.90
59007;DHT22;44792;52.760;6.726;2022-07-21T15:36:35;22.80;99.90
59007;DHT22;44792;52.760;6.726;2022-07-21T15:39:01;22.80;99.90
59007;DHT22;44792;52.760;6.726;2022-07-21T15:41:27;22.90;99.90
59007;DHT22;44792;52.760;6.726;2022-07-21T15:43:53;22.90;99.90
59007;DHT22;44792;52.760;6.726;2022-07-21T15:46:19;22.80;99.90
59007;DHT22;44792;52.760;6.726;2022-07-21T15:48:44;22.80;99.90
59007;DHT22;44792;52.760;6.726;2022-07-21T15:51:10;22.80;99.90
59007;DHT22;44792;52.760;6.726;2022-07-21T15:53:36;22.80;99.90
59007;DHT22;44792;52.760;6.726;2022-07-21T15:56:06;22.80;99.90
59007;DHT22;44792;52.760;6.726;2022-07-21T15:58:32;22.90;99.90
59007;DHT22;44792;52.760;6.726;2022-07-21T16:00:58;22.90;99.90
59007;DHT22;44792;52.760;6.726;2022-07-21T16:03:24;22.90;99.90
59007;DHT22;44792;52.760;6.726;2022-07-21T16:05:50;22.80;99.90
59007;DHT22;44792;52.760;6.726;2022-07-21T16:08:16;22.70;99.90
59007;DHT22;44792;52.760;6.726;2022-07-21T16:10:42;22.70;99.90